Time;durP1;ratioP1;P1;durP2;ratioP2;P2;SDS_P1;SDS_P2;PMS_P1;PMS_P2;Temp;Humidity;BMP_temperature;BMP_pressure;BME280_temperature;BME280_humidity;BME280_pressure;Samples;Min_cycle;Max_cycle;Signal;HPM_P1;HPM_P2
2023/05/10 00:00:33;;;;;;;;;;;;;;;17.54;63.99;99832.72;4968882;28;6968;-76
2023/05/10 00:02:59;;;;;;;;;;;;;;;17.54;64.14;99833.59;4963072;28;6788;-76
2023/05/10 00:05:25;;;;;;;;;;;;;;;17.53;64.32;99831.84;4963620;28;7354;-76
2023/05/10 00:07:50;;;;;;;;;;;;;;;17.55;64.03;99826.69;4954381;28;8725;-76
2023/05/10 00:10:16;;;;;;;;;;;;;;;17.54;64.34;99824.97;4983845;28;7169;-76
2023/05/10 00:12:42;;;;;;;;;;;;;;;17.54;64.46;99831.00;4965709;28;6923;-76
2023/05/10 00:15:09;;;;;;;;;;;;;;;17.52;64.51;99824.03;4964699;28;6776;-76
2023/05/10 00:17:35;;;;;;;;;;;;;;;17.53;64.25;99826.66;4960809;28;6812;-76
2023/05/10 00:20:00;;;;;;;;;;;;;;;17.55;64.20;99822.34;4952981;28;6982;-76
2023/05/10 00:22:26;;;;;;;;;;;;;;;17.57;64.58;99825.81;4962958;28;7199;-76
2023/05/10 00:24:52;;;;;;;;;;;;;;;17.57;64.58;99823.25;4950081;28;7153;-76
2023/05/10 00:27:17;;;;;;;;;;;;;;;17.59;64.57;99820.66;4962495;28;7272;-76
2023/05/10 00:29:43;;;;;;;;;;;;;;;17.58;64.21;99816.34;4981240;28;8541;-76
2023/05/10 00:32:08;;;;;;;;;;;;;;;17.58;64.16;99818.94;4947828;28;8320;-76
2023/05/10 00:34:34;;;;;;;;;;;;;;;17.55;64.26;99819.78;4959284;28;7167;-76
2023/05/10 00:37:00;;;;;;;;;;;;;;;17.55;64.60;99830.13;4981192;28;7228;-76
2023/05/10 00:39:26;;;;;;;;;;;;;;;17.53;64.54;99824.06;4951986;28;6878;-76
2023/05/10 00:41:52;;;;;;;;;;;;;;;17.51;64.33;99822.31;4971470;28;6804;-76
2023/05/10 00:44:18;;;;;;;;;;;;;;;17.49;64.44;99824.91;4964788;28;6920;-76
2023/05/10 00:46:45;;;;;;;;;;;;;;;17.48;64.31;99830.94;4981745;28;7276;-76
2023/05/10 00:49:11;;;;;;;;;;;;;;;17.47;64.28;99824.00;4984055;28;6817;-76
2023/05/10 00:51:37;;;;;;;;;;;;;;;17.47;64.39;99830.06;4959739;28;6967;-76
2023/05/10 00:54:03;;;;;;;;;;;;;;;17.48;64.13;99833.53;4969346;28;6776;-76
2023/05/10 00:56:29;;;;;;;;;;;;;;;17.47;64.19;99829.19;4963553;28;7917;-76
2023/05/10 00:58:55;;;;;;;;;;;;;;;17.46;64.38;99830.91;4952589;28;7341;-76
2023/05/10 01:01:21;;;;;;;;;;;;;;;17.46;64.22;99830.03;4960800;28;7007;-76
2023/05/10 01:03:47;;;;;;;;;;;;;;;17.46;64.52;99828.31;4962382;28;6776;-76
2023/05/10 01:06:13;;;;;;;;;;;;;;;17.48;64.66;99834.38;4976552;28;7280;-76
2023/05/10 01:08:40;;;;;;;;;;;;;;;17.50;64.56;99842.19;4965087;28;7865;-76
2023/05/10 01:11:06;;;;;;;;;;;;;;;17.49;64.34;99832.69;4981927;28;7275;-76
2023/05/10 01:13:37;;;;;;;;;;;;;;;17.50;64.48;99837.00;4971920;28;7322;-76
2023/05/10 01:16:04;;;;;;;;;;;;;;;17.51;64.65;99825.78;4971616;28;7049;-76
2023/05/10 01:18:40;;;;;;;;;;;;;;;17.51;64.59;99837.84;4983821;28;7273;-76
2023/05/10 01:21:32;;;;;;;;;;;;;;;17.49;64.18;99836.13;4967357;28;6776;-76
2023/05/10 01:24:39;;;;;;;;;;;;;;;17.49;64.97;99840.44;4967976;28;8919;-76
2023/05/10 01:27:51;;;;;;;;;;;;;;;17.50;64.48;99834.41;4967866;28;7132;-76
2023/05/10 01:30:54;;;;;;;;;;;;;;;17.52;65.11;99829.22;4968768;28;7434;-76
2023/05/10 01:33:38;;;;;;;;;;;;;;;17.53;64.21;99834.44;4965901;28;6847;-76
2023/05/10 01:36:48;;;;;;;;;;;;;;;17.55;64.15;99831.88;4956026;28;7398;-76
2023/05/10 01:39:44;;;;;;;;;;;;;;;17.58;64.90;99831.91;4949619;28;8500;-76
2023/05/10 01:42:19;;;;;;;;;;;;;;;17.57;64.45;99828.41;4950429;28;7045;-76
2023/05/10 01:45:12;;;;;;;;;;;;;;;17.59;64.50;99831.03;4950260;28;7234;-76
2023/05/10 01:47:44;;;;;;;;;;;;;;;17.61;64.82;99835.38;4954306;28;7334;-76
2023/05/10 01:50:18;;;;;;;;;;;;;;;17.63;64.60;99825.06;4974855;28;7221;-76
2023/05/10 01:52:54;;;;;;;;;;;;;;;17.62;64.36;99824.16;4955373;28;7149;-76
2023/05/10 01:55:23;;;;;;;;;;;;;;;17.62;64.48;99829.34;4965409;28;6863;-76
2023/05/10 01:58:12;;;;;;;;;;;;;;;17.61;64.51;99826.72;4962906;28;6863;-76
2023/05/10 02:00:44;;;;;;;;;;;;;;;17.60;64.54;99825.88;4952373;28;7227;-76
2023/05/10 02:03:13;;;;;;;;;;;;;;;17.61;64.46;99829.31;4950087;28;6800;-76
2023/05/10 02:05:44;;;;;;;;;;;;;;;17.60;64.53;99823.28;4964446;28;6994;-76
2023/05/10 02:08:12;;;;;;;;;;;;;;;17.62;64.48;99831.06;4961040;28;7423;-76
2023/05/10 02:10:40;;;;;;;;;;;;;;;17.64;64.68;99826.78;4967321;28;7398;-76
2023/05/10 02:13:08;;;;;;;;;;;;;;;17.66;64.61;99831.97;4951453;28;6926;-76
2023/05/10 02:15:37;;;;;;;;;;;;;;;17.69;64.15;99832.00;4957165;28;6872;-77
2023/05/10 02:18:05;;;;;;;;;;;;;;;17.67;64.06;99834.56;4983776;28;7264;-74
2023/05/10 02:20:33;;;;;;;;;;;;;;;17.69;64.41;99839.78;4962963;28;6990;-77
2023/05/10 02:23:00;;;;;;;;;;;;;;;17.69;63.79;99847.56;4971282;28;7145;-77
2023/05/10 02:25:28;;;;;;;;;;;;;;;17.68;64.07;99843.25;4965042;28;6812;-77
2023/05/10 02:27:56;;;;;;;;;;;;;;;17.69;64.48;99844.97;4967452;28;6983;-74
2023/05/10 02:30:24;;;;;;;;;;;;;;;17.70;64.04;99849.28;4969989;28;7214;-76
2023/05/10 02:32:52;;;;;;;;;;;;;;;17.70;64.13;99844.13;4971074;28;7106;-74
2023/05/10 02:35:18;;;;;;;;;;;;;;;17.69;63.97;99852.75;4964462;28;6800;-75
2023/05/10 02:37:46;;;;;;;;;;;;;;;17.69;64.12;99852.75;4957064;28;6840;-75
2023/05/10 02:40:14;;;;;;;;;;;;;;;17.69;64.06;99855.34;4950704;28;7168;-74
2023/05/10 02:42:43;;;;;;;;;;;;;;;17.67;63.70;99855.31;4983233;28;8459;-74
2023/05/10 02:45:17;;;;;;;;;;;;;;;17.64;64.21;99852.69;4965536;28;7283;-75
2023/05/10 02:47:43;;;;;;;;;;;;;;;17.60;63.59;99858.69;4981949;28;7191;-74
2023/05/10 02:50:10;;;;;;;;;;;;;;;17.58;64.20;99850.91;4983231;28;7056;-74
2023/05/10 02:52:51;;;;;;;;;;;;;;;17.57;64.03;99856.91;4965824;28;6784;-74
2023/05/10 02:55:25;;;;;;;;;;;;;;;17.54;63.75;99854.31;4984187;28;6852;-75
2023/05/10 02:57:59;;;;;;;;;;;;;;;17.52;63.55;99853.44;4951922;28;6792;-74
2023/05/10 03:00:25;;;;;;;;;;;;;;;17.51;64.03;99856.88;4947622;28;7057;-73
2023/05/10 03:02:52;;;;;;;;;;;;;;;17.48;63.96;99859.44;4950884;28;6972;-74
2023/05/10 03:05:18;;;;;;;;;;;;;;;17.46;64.17;99854.22;4954984;28;6977;-74
2023/05/10 03:07:45;;;;;;;;;;;;;;;17.44;63.95;99861.13;4949597;28;6971;-75
2023/05/10 03:10:12;;;;;;;;;;;;;;;17.43;63.52;99855.91;4967917;28;8434;-77
2023/05/10 03:13:07;;;;;;;;;;;;;;;17.40;63.87;99855.88;4950922;28;6816;-76
2023/05/10 03:15:48;;;;;;;;;;;;;;;17.36;64.25;99862.75;4965991;28;6835;-76
2023/05/10 03:18:33;;;;;;;;;;;;;;;17.33;63.81;99861.00;4979106;28;7008;-74
2023/05/10 03:21:07;;;;;;;;;;;;;;;17.35;63.90;99868.78;4976777;28;6880;-74
2023/05/10 03:23:48;;;;;;;;;;;;;;;17.35;64.03;99861.03;4970405;28;7063;-75
2023/05/10 03:26:25;;;;;;;;;;;;;;;17.35;63.88;99856.69;4947832;28;7331;-76
2023/05/10 03:28:53;;;;;;;;;;;;;;;17.34;64.19;99859.28;4968420;28;7042;-76
2023/05/10 03:31:19;;;;;;;;;;;;;;;17.35;63.92;99864.47;4965863;28;6979;-76
2023/05/10 03:33:49;;;;;;;;;;;;;;;17.36;63.98;99865.34;4961208;28;7455;-76
2023/05/10 03:36:15;;;;;;;;;;;;;;;17.37;63.84;99866.19;4947686;28;6899;-76
2023/05/10 03:38:41;;;;;;;;;;;;;;;17.37;64.06;99868.78;4978718;28;7152;-76
2023/05/10 03:41:07;;;;;;;;;;;;;;;17.38;63.69;99870.53;4963215;28;6807;-76
2023/05/10 03:43:32;;;;;;;;;;;;;;;17.35;64.25;99874.81;4981822;28;7060;-75
2023/05/10 03:45:58;;;;;;;;;;;;;;;17.37;63.57;99879.16;4973446;28;7217;-76
2023/05/10 03:48:24;;;;;;;;;;;;;;;17.37;63.84;99867.06;4945367;28;7846;-76
2023/05/10 03:50:49;;;;;;;;;;;;;;;17.37;63.82;99879.16;4965927;28;7258;-76
2023/05/10 03:53:15;;;;;;;;;;;;;;;17.37;63.82;99880.03;4961770;28;7228;-76
2023/05/10 03:55:41;;;;;;;;;;;;;;;17.36;63.78;99883.47;4966796;28;6855;-76
2023/05/10 03:58:10;;;;;;;;;;;;;;;17.33;63.71;99886.88;4964106;28;7028;-76
2023/05/10 04:00:35;;;;;;;;;;;;;;;17.33;63.50;99886.00;4949659;28;6875;-76
2023/05/10 04:03:01;;;;;;;;;;;;;;;17.33;63.70;99886.00;4979683;28;6858;-76
2023/05/10 04:05:27;;;;;;;;;;;;;;;17.34;63.64;99882.59;4945142;28;6975;-76
2023/05/10 04:07:52;;;;;;;;;;;;;;;17.33;63.95;99886.88;4961647;28;7230;-76
2023/05/10 04:10:18;;;;;;;;;;;;;;;17.33;63.39;99886.88;4965927;28;6967;-76
2023/05/10 04:12:44;;;;;;;;;;;;;;;17.33;63.58;99886.00;4960197;28;7979;-76
2023/05/10 04:15:10;;;;;;;;;;;;;;;17.32;63.84;99884.28;4951690;28;6836;-76
2023/05/10 04:17:35;;;;;;;;;;;;;;;17.32;63.63;99885.16;4952629;28;7191;-76
2023/05/10 04:20:01;;;;;;;;;;;;;;;17.30;63.61;99885.97;4968484;28;6856;-76
2023/05/10 04:22:28;;;;;;;;;;;;;;;17.29;63.56;99879.06;4965573;28;6808;-76
2023/05/10 04:24:54;;;;;;;;;;;;;;;17.28;63.60;99874.75;4967179;28;8137;-76
2023/05/10 04:27:20;;;;;;;;;;;;;;;17.25;63.37;99872.97;4953564;28;7195;-76
2023/05/10 04:29:45;;;;;;;;;;;;;;;17.24;63.53;99881.59;4947302;28;7051;-76
2023/05/10 04:32:11;;;;;;;;;;;;;;;17.23;63.49;99874.69;4951393;28;6772;-77
2023/05/10 04:34:37;;;;;;;;;;;;;;;17.23;63.57;99887.63;4952705;28;7102;-76
2023/05/10 04:37:03;;;;;;;;;;;;;;;17.23;63.80;99884.16;4952759;28;7311;-76
2023/05/10 04:39:29;;;;;;;;;;;;;;;17.24;63.78;99888.47;4968027;28;6947;-76
2023/05/10 04:41:54;;;;;;;;;;;;;;;17.24;63.53;99886.78;4968178;28;6951;-76
2023/05/10 04:44:20;;;;;;;;;;;;;;;17.26;63.81;99890.25;4964178;28;6975;-76
2023/05/10 04:46:46;;;;;;;;;;;;;;;17.27;63.53;99891.97;4982582;28;6836;-76
2023/05/10 04:49:11;;;;;;;;;;;;;;;17.30;63.67;99894.63;4960110;28;7651;-77
2023/05/10 04:51:37;;;;;;;;;;;;;;;17.30;63.72;99896.34;4968029;28;7292;-76
2023/05/10 04:54:02;;;;;;;;;;;;;;;17.31;63.71;99892.91;4972335;28;6967;-76
2023/05/10 04:56:28;;;;;;;;;;;;;;;17.31;63.91;99898.97;4981547;28;7205;-77
2023/05/10 04:58:54;;;;;;;;;;;;;;;17.32;63.71;99894.63;4949610;28;6874;-76
2023/05/10 05:01:19;;;;;;;;;;;;;;;17.32;63.78;99895.50;4969574;28;6947;-76
2023/05/10 05:03:45;;;;;;;;;;;;;;;17.35;63.67;99895.53;4965952;28;6836;-76
2023/05/10 05:06:11;;;;;;;;;;;;;;;17.36;63.75;99896.44;4967063;28;6970;-76
2023/05/10 05:08:37;;;;;;;;;;;;;;;17.38;63.71;99902.50;4951876;28;6996;-77
2023/05/10 05:11:02;;;;;;;;;;;;;;;17.39;63.63;99905.97;4965848;28;7138;-77
2023/05/10 05:13:28;;;;;;;;;;;;;;;17.41;63.83;99904.25;4966864;28;6970;-77
2023/05/10 05:15:54;;;;;;;;;;;;;;;17.41;63.41;99904.25;4951650;28;7216;-77
2023/05/10 05:18:20;;;;;;;;;;;;;;;17.41;63.65;99914.63;4985587;28;6999;-77
2023/05/10 05:20:46;;;;;;;;;;;;;;;17.41;63.65;99912.88;4967494;28;7228;-77
2023/05/10 05:23:11;;;;;;;;;;;;;;;17.43;63.83;99915.50;4969103;28;8068;-77
2023/05/10 05:25:37;;;;;;;;;;;;;;;17.46;63.59;99918.13;4966184;28;6951;-74
2023/05/10 05:28:03;;;;;;;;;;;;;;;17.48;63.70;99921.63;4950094;28;6972;-76
2023/05/10 05:30:28;;;;;;;;;;;;;;;17.50;63.59;99925.09;4970292;28;7192;-77
2023/05/10 05:32:54;;;;;;;;;;;;;;;17.50;63.60;99919.91;4974474;28;7072;-76
2023/05/10 05:35:20;;;;;;;;;;;;;;;17.47;63.96;99927.63;4952309;28;7027;-75
2023/05/10 05:37:46;;;;;;;;;;;;;;;17.45;63.56;99931.91;4958066;28;6975;-75
2023/05/10 05:40:15;;;;;;;;;;;;;;;17.42;63.87;99926.72;4980939;28;7248;-76
2023/05/10 05:42:41;;;;;;;;;;;;;;;17.42;63.80;99937.06;4977496;28;7054;-77
2023/05/10 05:45:08;;;;;;;;;;;;;;;17.43;64.15;99938.81;4964970;28;6816;-77
2023/05/10 05:47:34;;;;;;;;;;;;;;;17.46;63.84;99938.84;4968193;28;8583;-77
2023/05/10 05:50:00;;;;;;;;;;;;;;;17.50;64.31;99940.63;4972054;28;6996;-77
2023/05/10 05:52:25;;;;;;;;;;;;;;;17.55;64.16;99938.94;4975443;28;7194;-77
2023/05/10 05:54:51;;;;;;;;;;;;;;;17.58;63.77;99943.31;4973841;28;6960;-76
2023/05/10 05:57:16;;;;;;;;;;;;;;;17.60;63.79;99947.66;4991341;28;6954;-76
2023/05/10 05:59:43;;;;;;;;;;;;;;;17.60;63.49;99947.66;4966869;28;6784;-77
2023/05/10 06:02:10;;;;;;;;;;;;;;;17.60;63.61;99941.59;4958285;28;8923;-77
2023/05/10 06:04:36;;;;;;;;;;;;;;;17.58;63.21;99949.38;4971368;28;6856;-77
2023/05/10 06:07:01;;;;;;;;;;;;;;;17.57;63.81;99951.94;4970308;28;7371;-77
2023/05/10 06:09:27;;;;;;;;;;;;;;;17.56;63.33;99966.59;4972368;28;6829;-77
2023/05/10 06:11:52;;;;;;;;;;;;;;;17.56;63.63;99958.81;4967763;28;6824;-77
2023/05/10 06:14:21;;;;;;;;;;;;;;;17.55;63.43;99964.00;4971648;28;6947;-77
2023/05/10 06:16:46;;;;;;;;;;;;;;;17.56;63.97;99968.34;4958528;28;7049;-77
2023/05/10 06:19:12;;;;;;;;;;;;;;;17.59;63.73;99966.66;4958667;28;7044;-77
2023/05/10 06:21:37;;;;;;;;;;;;;;;17.60;64.29;99965.81;4974916;28;6780;-77
2023/05/10 06:24:05;;;;;;;;;;;;;;;17.65;64.09;99970.16;4990366;28;7247;-77
2023/05/10 06:26:30;;;;;;;;;;;;;;;17.67;64.11;99974.50;4970289;28;7129;-76
2023/05/10 06:28:56;;;;;;;;;;;;;;;17.70;63.95;99966.75;4981827;28;6984;-76
2023/05/10 06:31:22;;;;;;;;;;;;;;;17.72;63.60;99971.97;4971765;28;6784;-76
2023/05/10 06:33:47;;;;;;;;;;;;;;;17.70;63.68;99971.94;4971153;28;6938;-75
2023/05/10 06:36:13;;;;;;;;;;;;;;;17.69;63.71;99966.75;4953429;28;6960;-76
2023/05/10 06:38:39;;;;;;;;;;;;;;;17.67;64.05;99971.03;4986559;28;7015;-75
2023/05/10 06:41:05;;;;;;;;;;;;;;;17.66;64.42;99972.78;4950134;28;7831;-75
2023/05/10 06:43:31;;;;;;;;;;;;;;;17.66;64.34;99975.38;4971233;28;6788;-75
2023/05/10 06:45:57;;;;;;;;;;;;;;;17.69;64.43;99979.72;4984427;28;7272;-75
2023/05/10 06:48:23;;;;;;;;;;;;;;;17.72;64.14;99979.75;4970968;28;7174;-75
2023/05/10 06:50:49;;;;;;;;;;;;;;;17.75;64.27;99988.44;4972830;28;6772;-75
2023/05/10 06:53:15;;;;;;;;;;;;;;;17.77;64.26;99988.47;4964688;28;6951;-75
2023/05/10 06:55:40;;;;;;;;;;;;;;;17.80;64.18;99988.50;4950482;28;6839;-75
2023/05/10 06:58:06;;;;;;;;;;;;;;;17.83;64.00;99991.09;4953850;28;7143;-77
2023/05/10 07:00:32;;;;;;;;;;;;;;;17.84;64.03;100007.53;4986632;28;7142;-78
2023/05/10 07:02:58;;;;;;;;;;;;;;;17.83;64.14;99991.09;4968303;28;6840;-78
2023/05/10 07:05:23;;;;;;;;;;;;;;;17.85;64.07;99999.75;4948445;28;6963;-78
2023/05/10 07:07:49;;;;;;;;;;;;;;;17.85;63.84;99997.16;4969775;28;6804;-78
2023/05/10 07:10:15;;;;;;;;;;;;;;;17.85;63.89;100009.28;4971344;28;6772;-75
2023/05/10 07:12:41;;;;;;;;;;;;;;;17.84;63.63;100007.53;4968709;28;6772;-75
2023/05/10 07:15:08;;;;;;;;;;;;;;;17.83;64.07;100016.19;4968296;28;6979;-75
2023/05/10 07:17:33;;;;;;;;;;;;;;;17.85;64.16;100011.88;4955936;28;6928;-75
2023/05/10 07:20:00;;;;;;;;;;;;;;;17.88;64.20;100015.38;4969744;28;7175;-75
2023/05/10 07:22:25;;;;;;;;;;;;;;;17.89;64.14;100016.22;4970246;28;7240;-75
2023/05/10 07:24:51;;;;;;;;;;;;;;;17.90;63.88;100021.44;4954497;28;6944;-75
2023/05/10 07:27:17;;;;;;;;;;;;;;;17.95;64.45;100015.44;4987447;28;6954;-76
2023/05/10 07:29:43;;;;;;;;;;;;;;;17.98;64.24;100023.25;4971701;28;7029;-75
2023/05/10 07:32:08;;;;;;;;;;;;;;;17.97;64.06;100024.13;4978270;28;7349;-75
2023/05/10 07:34:34;;;;;;;;;;;;;;;17.96;64.11;100028.41;4967245;28;6804;-75
2023/05/10 07:37:00;;;;;;;;;;;;;;;17.96;63.66;100023.22;4972950;28;7459;-76
2023/05/10 07:39:27;;;;;;;;;;;;;;;17.95;63.71;100025.78;4988352;28;7283;-76
2023/05/10 07:41:52;;;;;;;;;;;;;;;17.93;63.56;100025.81;4973087;28;6982;-75
2023/05/10 07:44:20;;;;;;;;;;;;;;;17.89;63.86;100032.66;4987452;28;7292;-74
2023/05/10 07:46:46;;;;;;;;;;;;;;;17.85;63.77;100030.03;4971142;28;7049;-76
2023/05/10 07:49:12;;;;;;;;;;;;;;;17.82;63.37;100041.22;4969960;28;7153;-76
2023/05/10 07:51:37;;;;;;;;;;;;;;;17.81;64.18;100043.78;4954850;28;6957;-75
2023/05/10 07:54:03;;;;;;;;;;;;;;;17.79;64.06;100046.38;4985062;28;8482;-76
2023/05/10 07:56:32;;;;;;;;;;;;;;;17.80;63.83;100037.75;4964100;28;7247;-76
2023/05/10 07:59:06;;;;;;;;;;;;;;;17.81;63.46;100046.38;4953545;28;6804;-76
2023/05/10 08:01:34;;;;;;;;;;;;;;;17.79;64.22;100045.47;4953143;28;6907;-76
2023/05/10 08:04:01;;;;;;;;;;;;;;;17.76;63.94;100054.97;4969134;28;6788;-76
2023/05/10 08:06:28;;;;;;;;;;;;;;;17.77;63.46;100053.25;4966989;28;7012;-76
2023/05/10 08:08:54;;;;;;;;;;;;;;;17.76;63.55;100056.69;4966775;28;7737;-76
2023/05/10 08:11:20;;;;;;;;;;;;;;;17.78;64.03;100060.19;4948754;28;6951;-76
2023/05/10 08:13:48;;;;;;;;;;;;;;;17.81;63.78;100052.44;4985097;28;6792;-76
2023/05/10 08:16:14;;;;;;;;;;;;;;;17.85;63.81;100067.16;4986132;28;7057;-76
2023/05/10 08:18:40;;;;;;;;;;;;;;;17.90;63.36;100069.81;4952529;28;6955;-76
2023/05/10 08:21:05;;;;;;;;;;;;;;;17.96;63.34;100069.91;4953273;28;6772;-76
2023/05/10 08:23:31;;;;;;;;;;;;;;;18.01;63.80;100072.56;4968278;28;6822;-76
2023/05/10 08:25:57;;;;;;;;;;;;;;;18.07;64.00;100072.66;4968169;28;6908;-76
2023/05/10 08:28:22;;;;;;;;;;;;;;;18.11;63.19;100066.66;4965933;28;6764;-75
2023/05/10 08:30:50;;;;;;;;;;;;;;;18.17;63.40;100069.31;4984551;28;7079;-76
2023/05/10 08:33:17;;;;;;;;;;;;;;;18.23;63.80;100065.94;4970885;28;6852;-74
2023/05/10 08:35:43;;;;;;;;;;;;;;;18.32;63.44;100072.94;4951943;28;6800;-76
2023/05/10 08:38:08;;;;;;;;;;;;;;;18.42;63.67;100066.97;4964559;28;7088;-74
2023/05/10 08:40:36;;;;;;;;;;;;;;;18.53;63.57;100077.47;4959926;28;6939;-74
2023/05/10 08:43:09;;;;;;;;;;;;;;;18.63;63.56;100072.38;4951796;28;7003;-73
2023/05/10 08:45:42;;;;;;;;;;;;;;;18.71;63.24;100079.38;4956734;28;7206;-75
2023/05/10 08:48:11;;;;;;;;;;;;;;;18.83;62.96;100077.75;4964717;28;6808;-73
2023/05/10 08:50:39;;;;;;;;;;;;;;;18.92;62.41;100079.56;4970365;28;6792;-74
2023/05/10 08:53:11;;;;;;;;;;;;;;;18.98;62.34;100084.81;4968502;28;7040;-73
2023/05/10 08:55:38;;;;;;;;;;;;;;;19.12;62.56;100092.72;4954019;28;7203;-73
2023/05/10 08:58:07;;;;;;;;;;;;;;;19.32;62.93;100095.50;4966163;28;6776;-74
2023/05/10 09:00:34;;;;;;;;;;;;;;;19.48;62.61;100093.84;4951586;28;6997;-73
2023/05/10 09:03:02;;;;;;;;;;;;;;;19.65;62.28;100093.09;4949308;28;6965;-73
2023/05/10 09:05:28;;;;;;;;;;;;;;;19.78;61.82;100094.91;4967035;28;7035;-75
2023/05/10 09:07:54;;;;;;;;;;;;;;;19.91;61.89;100097.56;4971407;28;6772;-75
2023/05/10 09:10:21;;;;;;;;;;;;;;;20.04;61.34;100103.72;4952390;28;7220;-74
2023/05/10 09:12:48;;;;;;;;;;;;;;;20.18;61.58;100099.44;4943801;28;6911;-74
2023/05/10 09:15:19;;;;;;;;;;;;;;;20.26;60.92;100102.06;4953613;28;8584;-74
2023/05/10 09:17:46;;;;;;;;;;;;;;;20.25;60.27;100101.22;4967373;28;7210;-74
2023/05/10 09:20:12;;;;;;;;;;;;;;;20.15;59.53;100108.97;4950613;28;6792;-76
2023/05/10 09:22:38;;;;;;;;;;;;;;;19.99;59.60;100111.53;4965586;28;6971;-73
2023/05/10 09:25:05;;;;;;;;;;;;;;;19.80;59.34;100120.91;4965185;28;6772;-74
2023/05/10 09:27:31;;;;;;;;;;;;;;;19.66;59.91;100121.72;4963425;28;8615;-76
2023/05/10 09:29:57;;;;;;;;;;;;;;;19.60;60.46;100121.66;4970896;28;7156;-74
2023/05/10 09:32:39;;;;;;;;;;;;;;;19.59;60.65;100130.31;4957711;28;6980;-73
2023/05/10 09:35:08;;;;;;;;;;;;;;;19.60;60.98;100132.06;4956594;28;7170;-75
2023/05/10 09:37:34;;;;;;;;;;;;;;;19.65;61.25;100139.91;4967798;28;7150;-74
2023/05/10 09:40:00;;;;;;;;;;;;;;;19.73;60.59;100130.41;4971072;28;7538;-73
2023/05/10 09:42:25;;;;;;;;;;;;;;;19.77;60.17;100124.34;4958431;28;6971;-76
2023/05/10 09:44:51;;;;;;;;;;;;;;;19.70;59.69;100132.97;4971751;28;7124;-75
2023/05/10 09:47:18;;;;;;;;;;;;;;;19.62;59.76;100134.69;4986315;28;6979;-74
2023/05/10 09:49:50;;;;;;;;;;;;;;;19.59;60.05;100137.25;4982931;28;6996;-73
2023/05/10 09:52:16;;;;;;;;;;;;;;;19.56;60.27;100133.78;4968942;28;6800;-73
2023/05/10 09:54:54;;;;;;;;;;;;;;;19.57;60.57;100143.31;4985357;28;7248;-75
2023/05/10 09:57:25;;;;;;;;;;;;;;;19.63;60.40;100141.63;4967869;28;6988;-76
2023/05/10 09:59:53;;;;;;;;;;;;;;;19.65;59.90;100137.28;4968398;28;6935;-74
2023/05/10 10:02:19;;;;;;;;;;;;;;;19.60;59.16;100146.78;4959045;28;6980;-74
2023/05/10 10:04:48;;;;;;;;;;;;;;;19.53;59.87;100144.16;4984643;28;7334;-76
2023/05/10 10:07:14;;;;;;;;;;;;;;;19.48;60.13;100138.03;4968629;28;7289;-76
2023/05/10 10:09:40;;;;;;;;;;;;;;;19.50;60.65;100138.91;4967778;28;6776;-73
2023/05/10 10:12:06;;;;;;;;;;;;;;;19.53;60.84;100146.75;4954517;28;6826;-76
2023/05/10 10:14:31;;;;;;;;;;;;;;;19.61;60.97;100139.00;4967301;28;7256;-73
2023/05/10 10:17:00;;;;;;;;;;;;;;;19.70;60.35;100139.06;4969327;28;6799;-73
2023/05/10 10:19:26;;;;;;;;;;;;;;;19.83;60.50;100139.13;4969385;28;7224;-74
2023/05/10 10:21:52;;;;;;;;;;;;;;;19.97;60.50;100139.22;4969272;28;6860;-74
2023/05/10 10:24:17;;;;;;;;;;;;;;;20.12;60.15;100139.31;4971875;28;8530;-75
2023/05/10 10:26:47;;;;;;;;;;;;;;;20.30;59.93;100140.25;4970066;28;6776;-73
2023/05/10 10:29:31;;;;;;;;;;;;;;;20.38;59.32;100130.75;4955212;28;6996;-74
2023/05/10 10:32:30;;;;;;;;;;;;;;;20.47;59.49;100137.72;4974553;28;7229;-75
2023/05/10 10:34:56;;;;;;;;;;;;;;;20.62;59.50;100142.09;4951009;28;6808;-77
2023/05/10 10:37:22;;;;;;;;;;;;;;;20.76;59.15;100144.72;4952712;28;7249;-73
2023/05/10 10:39:50;;;;;;;;;;;;;;;20.86;58.63;100135.22;4969414;28;6961;-74
2023/05/10 10:42:49;;;;;;;;;;;;;;;20.91;58.54;100143.91;4966228;28;6943;-73
2023/05/10 10:45:16;;;;;;;;;;;;;;;20.93;58.11;100141.31;4957647;28;6804;-76
2023/05/10 10:47:43;;;;;;;;;;;;;;;20.86;57.70;100144.78;4971802;28;6824;-74
2023/05/10 10:50:09;;;;;;;;;;;;;;;20.75;57.64;100142.09;4967760;28;7088;-74
2023/05/10 10:52:37;;;;;;;;;;;;;;;20.62;57.67;100136.88;4966896;28;6995;-72
2023/05/10 10:55:13;;;;;;;;;;;;;;;20.54;58.20;100135.97;4955089;28;6792;-76
2023/05/10 10:58:00;;;;;;;;;;;;;;;20.50;58.17;100134.25;4951852;28;6888;-73
2023/05/10 11:00:36;;;;;;;;;;;;;;;20.58;58.57;100135.16;4951780;28;6955;-76
2023/05/10 11:03:08;;;;;;;;;;;;;;;20.64;58.40;100144.69;4950921;28;6860;-76
2023/05/10 11:05:41;;;;;;;;;;;;;;;20.71;58.24;100142.97;4969160;28;7231;-74
2023/05/10 11:08:17;;;;;;;;;;;;;;;20.77;58.02;100148.22;4966802;28;6819;-74
2023/05/10 11:10:53;;;;;;;;;;;;;;;20.80;57.97;100153.41;4960063;28;6969;-74
2023/05/10 11:13:33;;;;;;;;;;;;;;;20.84;57.60;100152.56;4956758;28;6804;-76
2023/05/10 11:16:23;;;;;;;;;;;;;;;20.79;57.55;100149.06;4966370;28;6973;-76
2023/05/10 11:19:11;;;;;;;;;;;;;;;20.81;57.72;100144.72;4965755;28;7259;-76
2023/05/10 11:22:11;;;;;;;;;;;;;;;20.80;56.87;100153.41;4956057;28;6792;-76
2023/05/10 11:24:37;;;;;;;;;;;;;;;20.76;56.82;100155.13;4962947;28;7380;-76
2023/05/10 11:27:02;;;;;;;;;;;;;;;20.70;56.56;100155.09;4965591;28;7239;-73
2023/05/10 11:29:28;;;;;;;;;;;;;;;20.69;56.75;100153.38;4954452;28;6942;-74
2023/05/10 11:31:58;;;;;;;;;;;;;;;20.68;56.94;100155.13;4969572;28;6768;-73
2023/05/10 11:34:27;;;;;;;;;;;;;;;20.74;56.80;100158.59;4959753;28;6977;-74
2023/05/10 11:36:55;;;;;;;;;;;;;;;20.76;56.50;100167.28;4970001;28;7001;-74
2023/05/10 11:39:21;;;;;;;;;;;;;;;20.78;56.67;100162.97;4952202;28;6807;-74
2023/05/10 11:41:49;;;;;;;;;;;;;;;20.87;57.27;100162.13;4952388;28;6780;-74
2023/05/10 11:44:14;;;;;;;;;;;;;;;21.04;57.61;100157.81;4953976;28;6853;-73
2023/05/10 11:46:40;;;;;;;;;;;;;;;21.37;57.82;100150.84;4967881;28;7003;-76
2023/05/10 11:49:07;;;;;;;;;;;;;;;21.76;57.04;100148.25;4945476;28;7307;-74
2023/05/10 11:51:36;;;;;;;;;;;;;;;22.04;55.36;100145.56;4950848;28;6935;-74
2023/05/10 11:54:10;;;;;;;;;;;;;;;22.15;55.13;100152.47;4989915;28;6883;-73
2023/05/10 11:56:40;;;;;;;;;;;;;;;22.19;54.69;100154.19;4965955;28;7137;-74
2023/05/10 11:59:07;;;;;;;;;;;;;;;22.20;54.66;100148.09;4963179;28;6797;-74
2023/05/10 12:01:34;;;;;;;;;;;;;;;22.30;54.58;100157.63;4953886;28;6988;-75
2023/05/10 12:04:01;;;;;;;;;;;;;;;22.49;54.44;100147.13;4955746;28;6800;-74
2023/05/10 12:06:30;;;;;;;;;;;;;;;22.70;53.70;100145.28;4981837;28;6788;-75
2023/05/10 12:08:57;;;;;;;;;;;;;;;22.86;53.08;100146.91;4971585;28;6971;-77
2023/05/10 12:11:28;;;;;;;;;;;;;;;23.02;53.05;100147.66;4983853;28;6992;-76
2023/05/10 12:13:55;;;;;;;;;;;;;;;23.36;53.96;100150.91;4954848;28;6966;-73
2023/05/10 12:16:27;;;;;;;;;;;;;;;23.94;53.71;100138.13;4954987;28;6808;-74
2023/05/10 12:18:58;;;;;;;;;;;;;;;24.55;51.75;100152.22;4985555;28;6947;-74
2023/05/10 12:21:25;;;;;;;;;;;;;;;24.98;50.62;100155.09;4950848;28;7035;-76
2023/05/10 12:23:55;;;;;;;;;;;;;;;25.20;49.36;100146.88;4957485;28;6804;-74
2023/05/10 12:26:26;;;;;;;;;;;;;;;25.13;48.70;100147.91;4966913;28;6909;-77
2023/05/10 12:28:54;;;;;;;;;;;;;;;24.91;48.51;100158.69;4981999;28;7148;-74
2023/05/10 12:31:19;;;;;;;;;;;;;;;24.61;48.12;100155.63;4940908;28;6971;-74
2023/05/10 12:33:47;;;;;;;;;;;;;;;24.34;48.77;100157.75;4951716;28;8342;-75
2023/05/10 12:36:15;;;;;;;;;;;;;;;24.06;48.27;100158.09;4969429;28;7034;-75
2023/05/10 12:38:49;;;;;;;;;;;;;;;23.92;48.75;100156.44;4956555;28;7343;-73
2023/05/10 12:41:18;;;;;;;;;;;;;;;23.89;48.83;100148.63;4981839;28;6886;-73
2023/05/10 12:43:46;;;;;;;;;;;;;;;23.97;48.78;100151.16;4986878;28;6970;-74
2023/05/10 12:46:18;;;;;;;;;;;;;;;24.18;49.01;100152.69;4982796;28;7257;-76
2023/05/10 12:48:54;;;;;;;;;;;;;;;24.37;48.57;100155.06;4973530;28;6979;-73
2023/05/10 12:51:21;;;;;;;;;;;;;;;24.57;48.66;100151.31;4972301;28;6986;-74
2023/05/10 12:53:47;;;;;;;;;;;;;;;24.82;48.06;100160.59;4955412;28;6799;-75
2023/05/10 12:56:13;;;;;;;;;;;;;;;24.95;47.71;100165.66;4987963;28;7359;-74
2023/05/10 12:58:39;;;;;;;;;;;;;;;25.00;46.69;100157.72;4955242;28;7220;-76
2023/05/10 13:01:05;;;;;;;;;;;;;;;24.98;47.01;100168.22;4970496;28;6783;-74